createdAt,value
2023-09-18T00:00:02.916Z,1004.2
2023-09-18T00:15:02.356Z,1003.8
2023-09-18T00:30:02.860Z,1003.5
2023-09-18T01:00:02.851Z,1002.9
2023-09-18T01:15:02.083Z,1002.8
2023-09-18T01:30:02.562Z,1002.6
2023-09-18T01:45:03.000Z,1002.3
2023-09-18T02:00:02.416Z,1002.1
2023-09-18T02:15:02.843Z,1002.0
2023-09-18T02:30:02.268Z,1002.0
2023-09-18T02:45:02.865Z,1001.7
2023-09-18T03:00:02.163Z,1001.3
2023-09-18T03:15:02.618Z,1000.7
2023-09-18T03:30:03.026Z,1000.6
2023-09-18T03:45:02.449Z,1000.1
2023-09-18T04:00:02.918Z,999.8
2023-09-18T04:15:02.337Z,999.4
2023-09-18T04:30:02.876Z,999.4
2023-09-18T04:45:02.241Z,999.2
2023-09-18T05:00:16.558Z,999.0
2023-09-18T05:15:03.125Z,998.8
2023-09-18T05:30:02.576Z,998.8
2023-09-18T05:45:02.992Z,999.0
2023-09-18T06:00:02.410Z,998.5
2023-09-18T06:15:02.920Z,998.8
2023-09-18T06:30:02.310Z,999.0
2023-09-18T06:45:03.140Z,999.1
2023-09-18T07:00:02.188Z,999.0
2023-09-18T07:15:02.637Z,999.1
2023-09-18T07:30:03.106Z,999.3
2023-09-18T07:45:02.525Z,999.2
2023-09-18T08:00:02.945Z,999.6
2023-09-18T08:15:02.374Z,999.4
2023-09-18T08:30:02.914Z,999.3
2023-09-18T08:45:02.256Z,999.5
2023-09-18T09:00:02.952Z,999.9
2023-09-18T09:15:02.223Z,999.8
2023-09-18T09:30:02.654Z,999.7
2023-09-18T09:45:03.032Z,999.5
2023-09-18T10:00:02.473Z,999.6
2023-09-18T10:15:03.363Z,1000.0
2023-09-18T10:45:02.947Z,1000.2
2023-09-18T11:00:02.302Z,1000.1
2023-09-18T11:15:02.724Z,1000.0
2023-09-18T11:30:03.132Z,1000.2
2023-09-18T11:45:02.630Z,1000.2
2023-09-18T12:00:03.061Z,1000.1
2023-09-18T12:15:03.480Z,1000.1
2023-09-18T12:30:02.953Z,1000.0
2023-09-18T12:45:02.316Z,1000.1
2023-09-18T13:00:02.975Z,999.9
2023-09-18T13:15:02.261Z,999.8
2023-09-18T13:30:02.672Z,999.6
2023-09-18T13:45:03.125Z,999.5
2023-09-18T14:00:02.672Z,999.7
2023-09-18T14:15:02.982Z,999.3
2023-09-18T14:30:02.456Z,999.2
2023-09-18T14:45:03.244Z,999.1
2023-09-18T15:15:02.790Z,999.0
2023-09-18T15:30:02.297Z,999.1
2023-09-18T15:45:02.632Z,999.0
2023-09-18T16:00:03.134Z,998.9
2023-09-18T16:15:02.462Z,998.9
2023-09-18T16:30:03.016Z,998.8
2023-09-18T16:45:02.348Z,998.8
2023-09-18T17:00:03.040Z,998.7
2023-09-18T17:15:02.216Z,998.8
2023-09-18T17:30:02.656Z,998.7
2023-09-18T17:45:03.112Z,998.7
2023-09-18T18:00:02.582Z,998.9
2023-09-18T18:15:03.045Z,999.5
2023-09-18T18:30:02.433Z,1000.4
2023-09-18T18:45:03.059Z,1000.3
2023-09-18T19:00:02.366Z,1000.3
2023-09-18T19:15:04.637Z,999.8
2023-09-18T19:30:02.207Z,999.8
2023-09-18T19:45:02.677Z,999.6
2023-09-18T20:00:03.140Z,999.7
2023-09-18T20:15:02.569Z,999.8
2023-09-18T20:30:03.059Z,999.8
2023-09-18T20:45:02.500Z,999.9
2023-09-18T21:00:03.091Z,1000.0
2023-09-18T21:15:02.323Z,1000.1
2023-09-18T21:30:02.719Z,1000.1
2023-09-18T21:45:03.180Z,1000.2
2023-09-18T22:00:02.574Z,1000.4
2023-09-18T22:30:02.672Z,1000.6
2023-09-18T22:45:03.079Z,1000.7
2023-09-18T23:00:02.373Z,1000.8
2023-09-18T23:15:02.799Z,1001.0
2023-09-18T23:30:02.219Z,1001.0
2023-09-18T23:45:02.643Z,1001.1
